sensor_id;sensor_type;location;lat;lon;timestamp;P1;durP1;ratioP1;P2;durP2;ratioP2
13832;SDS011;6987;19.472;-99.276;2023-05-18T00:02:04;8.93;;;8.00;;
13832;SDS011;6987;19.472;-99.276;2023-05-18T00:04:34;8.38;;;7.40;;
13832;SDS011;6987;19.472;-99.276;2023-05-18T00:07:04;8.32;;;7.63;;
13832;SDS011;6987;19.472;-99.276;2023-05-18T00:09:34;12.70;;;7.55;;
13832;SDS011;6987;19.472;-99.276;2023-05-18T00:12:03;8.55;;;7.45;;
13832;SDS011;6987;19.472;-99.276;2023-05-18T00:14:34;9.57;;;7.78;;
13832;SDS011;6987;19.472;-99.276;2023-05-18T00:17:03;8.52;;;7.55;;
13832;SDS011;6987;19.472;-99.276;2023-05-18T00:19:32;9.57;;;7.57;;
13832;SDS011;6987;19.472;-99.276;2023-05-18T00:22:01;7.82;;;7.03;;
13832;SDS011;6987;19.472;-99.276;2023-05-18T00:24:32;8.50;;;7.57;;
13832;SDS011;6987;19.472;-99.276;2023-05-18T00:27:01;7.55;;;6.90;;
13832;SDS011;6987;19.472;-99.276;2023-05-18T00:29:30;7.07;;;6.38;;
13832;SDS011;6987;19.472;-99.276;2023-05-18T00:32:00;8.82;;;7.95;;
13832;SDS011;6987;19.472;-99.276;2023-05-18T00:34:29;8.45;;;7.43;;
13832;SDS011;6987;19.472;-99.276;2023-05-18T00:36:58;8.15;;;7.35;;
13832;SDS011;6987;19.472;-99.276;2023-05-18T00:39:27;7.47;;;6.78;;
13832;SDS011;6987;19.472;-99.276;2023-05-18T00:41:56;8.07;;;7.28;;
13832;SDS011;6987;19.472;-99.276;2023-05-18T00:44:25;8.20;;;7.28;;
13832;SDS011;6987;19.472;-99.276;2023-05-18T00:46:54;8.65;;;7.10;;
13832;SDS011;6987;19.472;-99.276;2023-05-18T00:49:26;7.90;;;6.85;;
13832;SDS011;6987;19.472;-99.276;2023-05-18T00:51:55;8.00;;;7.30;;
13832;SDS011;6987;19.472;-99.276;2023-05-18T00:54:25;7.57;;;6.78;;
13832;SDS011;6987;19.472;-99.276;2023-05-18T00:56:54;7.45;;;6.75;;
13832;SDS011;6987;19.472;-99.276;2023-05-18T00:59:27;8.98;;;7.18;;
13832;SDS011;6987;19.472;-99.276;2023-05-18T01:01:55;9.10;;;6.88;;
13832;SDS011;6987;19.472;-99.276;2023-05-18T01:04:26;7.32;;;6.63;;
13832;SDS011;6987;19.472;-99.276;2023-05-18T01:06:56;8.18;;;6.57;;
13832;SDS011;6987;19.472;-99.276;2023-05-18T01:09:31;7.80;;;6.97;;
13832;SDS011;6987;19.472;-99.276;2023-05-18T01:12:02;9.18;;;7.55;;
13832;SDS011;6987;19.472;-99.276;2023-05-18T01:14:36;8.38;;;7.20;;
13832;SDS011;6987;19.472;-99.276;2023-05-18T01:17:08;8.00;;;6.75;;
13832;SDS011;6987;19.472;-99.276;2023-05-18T01:19:58;7.85;;;6.97;;
13832;SDS011;6987;19.472;-99.276;2023-05-18T01:22:32;14.38;;;6.93;;
13832;SDS011;6987;19.472;-99.276;2023-05-18T01:25:09;8.18;;;7.28;;
13832;SDS011;6987;19.472;-99.276;2023-05-18T01:27:43;7.75;;;7.05;;
13832;SDS011;6987;19.472;-99.276;2023-05-18T01:30:14;6.75;;;6.15;;
13832;SDS011;6987;19.472;-99.276;2023-05-18T01:32:44;6.18;;;5.68;;
13832;SDS011;6987;19.472;-99.276;2023-05-18T01:35:14;5.93;;;5.32;;
13832;SDS011;6987;19.472;-99.276;2023-05-18T01:37:42;7.90;;;5.72;;
13832;SDS011;6987;19.472;-99.276;2023-05-18T01:40:11;5.65;;;5.22;;
13832;SDS011;6987;19.472;-99.276;2023-05-18T01:42:42;5.72;;;5.32;;
13832;SDS011;6987;19.472;-99.276;2023-05-18T01:45:16;6.10;;;5.60;;
13832;SDS011;6987;19.472;-99.276;2023-05-18T01:47:47;7.00;;;6.32;;
13832;SDS011;6987;19.472;-99.276;2023-05-18T01:50:16;6.50;;;6.00;;
13832;SDS011;6987;19.472;-99.276;2023-05-18T01:52:47;8.23;;;6.28;;
13832;SDS011;6987;19.472;-99.276;2023-05-18T01:55:19;6.32;;;5.82;;
13832;SDS011;6987;19.472;-99.276;2023-05-18T01:57:49;9.48;;;5.65;;
13832;SDS011;6987;19.472;-99.276;2023-05-18T02:00:20;5.85;;;5.38;;
13832;SDS011;6987;19.472;-99.276;2023-05-18T02:02:51;5.82;;;5.38;;
13832;SDS011;6987;19.472;-99.276;2023-05-18T02:05:20;5.88;;;5.38;;
13832;SDS011;6987;19.472;-99.276;2023-05-18T02:07:49;6.43;;;5.93;;
13832;SDS011;6987;19.472;-99.276;2023-05-18T02:10:18;6.30;;;5.80;;
13832;SDS011;6987;19.472;-99.276;2023-05-18T02:12:47;6.78;;;6.10;;
13832;SDS011;6987;19.472;-99.276;2023-05-18T02:15:17;6.55;;;5.85;;
13832;SDS011;6987;19.472;-99.276;2023-05-18T02:17:48;5.93;;;5.53;;
13832;SDS011;6987;19.472;-99.276;2023-05-18T02:20:22;12.80;;;5.75;;
13832;SDS011;6987;19.472;-99.276;2023-05-18T02:22:51;7.15;;;6.20;;
13832;SDS011;6987;19.472;-99.276;2023-05-18T02:25:20;7.00;;;6.40;;
13832;SDS011;6987;19.472;-99.276;2023-05-18T02:27:49;6.90;;;6.20;;
13832;SDS011;6987;19.472;-99.276;2023-05-18T02:30:18;6.28;;;5.78;;
13832;SDS011;6987;19.472;-99.276;2023-05-18T02:32:48;11.27;;;5.93;;
13832;SDS011;6987;19.472;-99.276;2023-05-18T02:35:18;6.97;;;6.38;;
13832;SDS011;6987;19.472;-99.276;2023-05-18T02:37:47;7.60;;;5.80;;
13832;SDS011;6987;19.472;-99.276;2023-05-18T02:40:16;6.18;;;5.68;;
13832;SDS011;6987;19.472;-99.276;2023-05-18T02:42:45;10.70;;;5.70;;
13832;SDS011;6987;19.472;-99.276;2023-05-18T02:45:14;6.55;;;5.82;;
13832;SDS011;6987;19.472;-99.276;2023-05-18T02:47:45;6.75;;;6.07;;
13832;SDS011;6987;19.472;-99.276;2023-05-18T02:50:16;8.73;;;5.75;;
13832;SDS011;6987;19.472;-99.276;2023-05-18T02:52:44;7.22;;;6.60;;
13832;SDS011;6987;19.472;-99.276;2023-05-18T02:55:14;6.78;;;6.18;;
13832;SDS011;6987;19.472;-99.276;2023-05-18T02:57:43;6.55;;;5.95;;
13832;SDS011;6987;19.472;-99.276;2023-05-18T03:00:13;7.05;;;6.43;;
13832;SDS011;6987;19.472;-99.276;2023-05-18T03:02:42;8.93;;;6.80;;
13832;SDS011;6987;19.472;-99.276;2023-05-18T03:05:12;6.82;;;6.22;;
13832;SDS011;6987;19.472;-99.276;2023-05-18T03:07:50;6.80;;;6.13;;
13832;SDS011;6987;19.472;-99.276;2023-05-18T03:10:19;7.22;;;6.50;;
13832;SDS011;6987;19.472;-99.276;2023-05-18T03:12:48;9.82;;;6.75;;
13832;SDS011;6987;19.472;-99.276;2023-05-18T03:15:17;8.25;;;7.20;;
13832;SDS011;6987;19.472;-99.276;2023-05-18T03:17:46;7.10;;;6.43;;
13832;SDS011;6987;19.472;-99.276;2023-05-18T03:20:16;7.82;;;7.13;;
13832;SDS011;6987;19.472;-99.276;2023-05-18T03:22:46;7.07;;;6.53;;
13832;SDS011;6987;19.472;-99.276;2023-05-18T03:25:17;6.75;;;6.20;;
13832;SDS011;6987;19.472;-99.276;2023-05-18T03:27:47;10.13;;;7.35;;
13832;SDS011;6987;19.472;-99.276;2023-05-18T03:30:16;7.68;;;7.07;;
13832;SDS011;6987;19.472;-99.276;2023-05-18T03:32:45;9.00;;;7.03;;
13832;SDS011;6987;19.472;-99.276;2023-05-18T03:35:14;7.07;;;6.47;;
13832;SDS011;6987;19.472;-99.276;2023-05-18T03:37:43;7.57;;;6.38;;
13832;SDS011;6987;19.472;-99.276;2023-05-18T03:40:12;7.60;;;6.82;;
13832;SDS011;6987;19.472;-99.276;2023-05-18T03:42:43;6.93;;;6.32;;
13832;SDS011;6987;19.472;-99.276;2023-05-18T03:45:12;7.72;;;6.93;;
13832;SDS011;6987;19.472;-99.276;2023-05-18T03:47:41;7.80;;;7.03;;
13832;SDS011;6987;19.472;-99.276;2023-05-18T03:50:10;11.80;;;7.85;;
13832;SDS011;6987;19.472;-99.276;2023-05-18T03:52:39;7.80;;;6.97;;
13832;SDS011;6987;19.472;-99.276;2023-05-18T03:55:09;6.85;;;6.22;;
13832;SDS011;6987;19.472;-99.276;2023-05-18T03:57:38;6.88;;;6.30;;
13832;SDS011;6987;19.472;-99.276;2023-05-18T04:00:09;7.82;;;7.13;;
13832;SDS011;6987;19.472;-99.276;2023-05-18T04:02:38;7.57;;;6.88;;
13832;SDS011;6987;19.472;-99.276;2023-05-18T04:05:07;6.85;;;6.25;;
13832;SDS011;6987;19.472;-99.276;2023-05-18T04:07:36;9.77;;;7.03;;
13832;SDS011;6987;19.472;-99.276;2023-05-18T04:10:11;7.15;;;6.57;;
13832;SDS011;6987;19.472;-99.276;2023-05-18T04:12:41;7.63;;;6.93;;
13832;SDS011;6987;19.472;-99.276;2023-05-18T04:15:12;8.48;;;7.60;;
13832;SDS011;6987;19.472;-99.276;2023-05-18T04:17:41;11.52;;;7.60;;
13832;SDS011;6987;19.472;-99.276;2023-05-18T04:20:10;9.27;;;7.93;;
13832;SDS011;6987;19.472;-99.276;2023-05-18T04:22:40;11.00;;;7.95;;
13832;SDS011;6987;19.472;-99.276;2023-05-18T04:25:12;10.55;;;7.65;;
13832;SDS011;6987;19.472;-99.276;2023-05-18T04:27:41;9.27;;;7.63;;
13832;SDS011;6987;19.472;-99.276;2023-05-18T04:30:13;9.88;;;8.63;;
13832;SDS011;6987;19.472;-99.276;2023-05-18T04:32:43;10.15;;;7.03;;
13832;SDS011;6987;19.472;-99.276;2023-05-18T04:35:12;10.00;;;7.72;;
13832;SDS011;6987;19.472;-99.276;2023-05-18T04:37:42;12.00;;;8.88;;
13832;SDS011;6987;19.472;-99.276;2023-05-18T04:40:11;13.50;;;8.90;;
13832;SDS011;6987;19.472;-99.276;2023-05-18T04:42:41;11.02;;;8.90;;
13832;SDS011;6987;19.472;-99.276;2023-05-18T04:45:14;9.75;;;8.13;;
13832;SDS011;6987;19.472;-99.276;2023-05-18T04:47:44;9.60;;;8.68;;
13832;SDS011;6987;19.472;-99.276;2023-05-18T04:50:18;10.57;;;9.15;;
13832;SDS011;6987;19.472;-99.276;2023-05-18T04:52:48;14.05;;;9.40;;
13832;SDS011;6987;19.472;-99.276;2023-05-18T04:55:18;9.30;;;8.40;;
13832;SDS011;6987;19.472;-99.276;2023-05-18T04:57:50;10.45;;;8.65;;
13832;SDS011;6987;19.472;-99.276;2023-05-18T05:00:23;9.85;;;8.93;;
13832;SDS011;6987;19.472;-99.276;2023-05-18T05:02:53;15.70;;;8.48;;
13832;SDS011;6987;19.472;-99.276;2023-05-18T05:05:23;12.38;;;9.25;;
13832;SDS011;6987;19.472;-99.276;2023-05-18T05:07:52;9.00;;;8.00;;
13832;SDS011;6987;19.472;-99.276;2023-05-18T05:10:22;15.27;;;10.32;;
13832;SDS011;6987;19.472;-99.276;2023-05-18T05:12:51;15.88;;;9.23;;
13832;SDS011;6987;19.472;-99.276;2023-05-18T05:15:20;10.90;;;8.95;;
13832;SDS011;6987;19.472;-99.276;2023-05-18T05:17:51;10.02;;;8.15;;
13832;SDS011;6987;19.472;-99.276;2023-05-18T05:20:20;11.05;;;8.68;;
13832;SDS011;6987;19.472;-99.276;2023-05-18T05:22:49;8.70;;;7.82;;
13832;SDS011;6987;19.472;-99.276;2023-05-18T05:25:19;10.43;;;8.27;;
13832;SDS011;6987;19.472;-99.276;2023-05-18T05:27:48;9.63;;;6.75;;
13832;SDS011;6987;19.472;-99.276;2023-05-18T05:30:17;8.57;;;7.75;;
13832;SDS011;6987;19.472;-99.276;2023-05-18T05:32:46;8.57;;;7.78;;
13832;SDS011;6987;19.472;-99.276;2023-05-18T05:35:17;9.35;;;8.40;;
13832;SDS011;6987;19.472;-99.276;2023-05-18T05:37:47;8.90;;;7.97;;
13832;SDS011;6987;19.472;-99.276;2023-05-18T05:40:16;9.10;;;7.68;;
13832;SDS011;6987;19.472;-99.276;2023-05-18T05:42:45;7.53;;;6.68;;
13832;SDS011;6987;19.472;-99.276;2023-05-18T05:45:15;8.65;;;6.95;;
13832;SDS011;6987;19.472;-99.276;2023-05-18T05:47:43;8.90;;;7.60;;
13832;SDS011;6987;19.472;-99.276;2023-05-18T05:50:14;7.68;;;6.95;;
13832;SDS011;6987;19.472;-99.276;2023-05-18T05:52:45;7.03;;;6.43;;
13832;SDS011;6987;19.472;-99.276;2023-05-18T05:55:14;9.38;;;7.13;;
13832;SDS011;6987;19.472;-99.276;2023-05-18T05:57:43;8.00;;;7.03;;
13832;SDS011;6987;19.472;-99.276;2023-05-18T06:00:12;10.63;;;6.97;;
13832;SDS011;6987;19.472;-99.276;2023-05-18T06:02:41;9.57;;;7.07;;
13832;SDS011;6987;19.472;-99.276;2023-05-18T06:05:10;7.25;;;6.65;;
13832;SDS011;6987;19.472;-99.276;2023-05-18T06:07:39;7.35;;;6.75;;
13832;SDS011;6987;19.472;-99.276;2023-05-18T06:10:10;7.15;;;6.57;;
13832;SDS011;6987;19.472;-99.276;2023-05-18T06:12:39;6.82;;;6.18;;
13832;SDS011;6987;19.472;-99.276;2023-05-18T06:15:08;8.18;;;7.43;;
13832;SDS011;6987;19.472;-99.276;2023-05-18T06:17:37;7.57;;;6.88;;
13832;SDS011;6987;19.472;-99.276;2023-05-18T06:20:08;7.03;;;6.40;;
13832;SDS011;6987;19.472;-99.276;2023-05-18T06:22:38;7.93;;;6.30;;
13832;SDS011;6987;19.472;-99.276;2023-05-18T06:25:10;6.78;;;6.15;;
13832;SDS011;6987;19.472;-99.276;2023-05-18T06:27:39;7.07;;;6.45;;
13832;SDS011;6987;19.472;-99.276;2023-05-18T06:30:09;7.63;;;6.70;;
13832;SDS011;6987;19.472;-99.276;2023-05-18T06:32:38;7.47;;;6.72;;
13832;SDS011;6987;19.472;-99.276;2023-05-18T06:35:07;7.88;;;7.07;;
13832;SDS011;6987;19.472;-99.276;2023-05-18T06:37:37;7.68;;;6.97;;
13832;SDS011;6987;19.472;-99.276;2023-05-18T06:40:07;8.10;;;7.30;;
13832;SDS011;6987;19.472;-99.276;2023-05-18T06:42:38;7.30;;;6.70;;
13832;SDS011;6987;19.472;-99.276;2023-05-18T06:45:07;7.65;;;6.95;;
13832;SDS011;6987;19.472;-99.276;2023-05-18T06:47:36;8.07;;;7.35;;
13832;SDS011;6987;19.472;-99.276;2023-05-18T06:50:07;7.65;;;6.45;;
13832;SDS011;6987;19.472;-99.276;2023-05-18T06:52:36;7.55;;;6.80;;
13832;SDS011;6987;19.472;-99.276;2023-05-18T06:55:05;8.85;;;8.07;;
13832;SDS011;6987;19.472;-99.276;2023-05-18T06:57:34;8.32;;;7.35;;
13832;SDS011;6987;19.472;-99.276;2023-05-18T07:00:05;9.10;;;7.20;;
13832;SDS011;6987;19.472;-99.276;2023-05-18T07:02:35;9.40;;;8.02;;
13832;SDS011;6987;19.472;-99.276;2023-05-18T07:05:04;8.98;;;8.02;;
13832;SDS011;6987;19.472;-99.276;2023-05-18T07:07:33;8.55;;;7.75;;
13832;SDS011;6987;19.472;-99.276;2023-05-18T07:10:03;8.57;;;7.55;;
13832;SDS011;6987;19.472;-99.276;2023-05-18T07:12:31;9.10;;;7.32;;
13832;SDS011;6987;19.472;-99.276;2023-05-18T07:15:00;9.18;;;8.27;;
13832;SDS011;6987;19.472;-99.276;2023-05-18T07:17:31;9.15;;;7.90;;
13832;SDS011;6987;19.472;-99.276;2023-05-18T07:20:00;9.95;;;8.23;;
13832;SDS011;6987;19.472;-99.276;2023-05-18T07:22:31;8.93;;;7.22;;
13832;SDS011;6987;19.472;-99.276;2023-05-18T07:25:00;10.90;;;8.30;;
13832;SDS011;6987;19.472;-99.276;2023-05-18T07:27:29;8.50;;;7.45;;
13832;SDS011;6987;19.472;-99.276;2023-05-18T07:29:58;9.52;;;8.43;;
13832;SDS011;6987;19.472;-99.276;2023-05-18T07:32:27;9.07;;;8.27;;
13832;SDS011;6987;19.472;-99.276;2023-05-18T07:34:57;9.48;;;8.55;;
13832;SDS011;6987;19.472;-99.276;2023-05-18T07:37:26;8.40;;;7.60;;
13832;SDS011;6987;19.472;-99.276;2023-05-18T07:39:55;11.85;;;9.02;;
13832;SDS011;6987;19.472;-99.276;2023-05-18T07:42:24;9.32;;;8.40;;
13832;SDS011;6987;19.472;-99.276;2023-05-18T07:44:53;8.73;;;7.93;;
13832;SDS011;6987;19.472;-99.276;2023-05-18T07:47:22;10.50;;;8.68;;
13832;SDS011;6987;19.472;-99.276;2023-05-18T07:49:51;9.77;;;8.43;;
13832;SDS011;6987;19.472;-99.276;2023-05-18T07:52:22;10.38;;;9.27;;
13832;SDS011;6987;19.472;-99.276;2023-05-18T07:54:51;9.77;;;8.80;;
13832;SDS011;6987;19.472;-99.276;2023-05-18T07:57:20;9.85;;;8.52;;
13832;SDS011;6987;19.472;-99.276;2023-05-18T07:59:49;12.25;;;9.23;;
13832;SDS011;6987;19.472;-99.276;2023-05-18T08:02:18;9.20;;;8.23;;
13832;SDS011;6987;19.472;-99.276;2023-05-18T08:04:46;9.23;;;8.43;;
13832;SDS011;6987;19.472;-99.276;2023-05-18T08:07:16;11.68;;;8.75;;
13832;SDS011;6987;19.472;-99.276;2023-05-18T08:09:48;10.55;;;9.13;;
13832;SDS011;6987;19.472;-99.276;2023-05-18T08:12:16;9.93;;;8.93;;
13832;SDS011;6987;19.472;-99.276;2023-05-18T08:14:45;11.57;;;9.27;;
13832;SDS011;6987;19.472;-99.276;2023-05-18T08:17:15;9.45;;;8.50;;
13832;SDS011;6987;19.472;-99.276;2023-05-18T08:19:44;10.15;;;9.20;;
13832;SDS011;6987;19.472;-99.276;2023-05-18T08:22:13;12.02;;;8.75;;
13832;SDS011;6987;19.472;-99.276;2023-05-18T08:24:42;9.15;;;8.32;;
13832;SDS011;6987;19.472;-99.276;2023-05-18T08:27:13;8.88;;;8.18;;
13832;SDS011;6987;19.472;-99.276;2023-05-18T08:29:42;9.75;;;8.65;;
13832;SDS011;6987;19.472;-99.276;2023-05-18T08:32:11;9.88;;;9.07;;
13832;SDS011;6987;19.472;-99.276;2023-05-18T08:34:40;12.38;;;10.20;;
13832;SDS011;6987;19.472;-99.276;2023-05-18T08:37:08;9.63;;;8.82;;
13832;SDS011;6987;19.472;-99.276;2023-05-18T08:39:37;9.98;;;9.07;;
13832;SDS011;6987;19.472;-99.276;2023-05-18T08:42:07;10.38;;;9.32;;
13832;SDS011;6987;19.472;-99.276;2023-05-18T08:44:50;9.30;;;8.32;;
13832;SDS011;6987;19.472;-99.276;2023-05-18T08:47:26;10.88;;;8.85;;
13832;SDS011;6987;19.472;-99.276;2023-05-18T08:49:55;9.32;;;8.52;;
13832;SDS011;6987;19.472;-99.276;2023-05-18T08:52:24;9.43;;;8.57;;
13832;SDS011;6987;19.472;-99.276;2023-05-18T08:54:56;8.90;;;7.90;;
13832;SDS011;6987;19.472;-99.276;2023-05-18T08:57:25;8.90;;;8.10;;
13832;SDS011;6987;19.472;-99.276;2023-05-18T08:59:57;10.50;;;9.10;;
13832;SDS011;6987;19.472;-99.276;2023-05-18T09:02:29;12.52;;;8.38;;
13832;SDS011;6987;19.472;-99.276;2023-05-18T09:05:01;9.00;;;8.18;;
13832;SDS011;6987;19.472;-99.276;2023-05-18T09:07:30;8.15;;;7.55;;
13832;SDS011;6987;19.472;-99.276;2023-05-18T09:09:59;10.32;;;8.45;;
13832;SDS011;6987;19.472;-99.276;2023-05-18T09:12:30;8.75;;;8.05;;
13832;SDS011;6987;19.472;-99.276;2023-05-18T09:15:01;9.95;;;7.80;;
13832;SDS011;6987;19.472;-99.276;2023-05-18T09:17:31;8.95;;;8.13;;
13832;SDS011;6987;19.472;-99.276;2023-05-18T09:19:59;10.43;;;8.35;;
13832;SDS011;6987;19.472;-99.276;2023-05-18T09:22:31;9.35;;;8.60;;
13832;SDS011;6987;19.472;-99.276;2023-05-18T09:25:00;11.55;;;8.05;;
13832;SDS011;6987;19.472;-99.276;2023-05-18T09:27:29;8.48;;;7.68;;
13832;SDS011;6987;19.472;-99.276;2023-05-18T09:30:02;8.27;;;7.65;;
13832;SDS011;6987;19.472;-99.276;2023-05-18T09:32:33;7.95;;;7.25;;
13832;SDS011;6987;19.472;-99.276;2023-05-18T09:35:03;10.23;;;7.43;;
13832;SDS011;6987;19.472;-99.276;2023-05-18T09:37:32;8.93;;;8.02;;
13832;SDS011;6987;19.472;-99.276;2023-05-18T09:40:01;8.13;;;7.53;;
13832;SDS011;6987;19.472;-99.276;2023-05-18T09:42:34;8.85;;;8.07;;
13832;SDS011;6987;19.472;-99.276;2023-05-18T09:45:06;8.80;;;7.50;;
13832;SDS011;6987;19.472;-99.276;2023-05-18T09:47:42;8.10;;;7.40;;
13832;SDS011;6987;19.472;-99.276;2023-05-18T09:50:12;13.48;;;8.05;;
13832;SDS011;6987;19.472;-99.276;2023-05-18T09:52:41;10.32;;;7.82;;
13832;SDS011;6987;19.472;-99.276;2023-05-18T09:55:11;8.73;;;8.02;;
13832;SDS011;6987;19.472;-99.276;2023-05-18T09:57:41;9.63;;;8.75;;
13832;SDS011;6987;19.472;-99.276;2023-05-18T10:00:13;9.02;;;8.23;;
13832;SDS011;6987;19.472;-99.276;2023-05-18T10:02:42;9.23;;;8.32;;
13832;SDS011;6987;19.472;-99.276;2023-05-18T10:05:19;9.40;;;8.50;;
13832;SDS011;6987;19.472;-99.276;2023-05-18T10:07:49;8.82;;;8.10;;
13832;SDS011;6987;19.472;-99.276;2023-05-18T10:10:19;11.02;;;8.93;;
13832;SDS011;6987;19.472;-99.276;2023-05-18T10:12:49;8.25;;;7.65;;
13832;SDS011;6987;19.472;-99.276;2023-05-18T10:15:20;8.75;;;7.93;;
13832;SDS011;6987;19.472;-99.276;2023-05-18T10:17:49;9.95;;;9.05;;
13832;SDS011;6987;19.472;-99.276;2023-05-18T10:20:19;11.65;;;8.65;;
13832;SDS011;6987;19.472;-99.276;2023-05-18T10:22:49;10.35;;;9.35;;
13832;SDS011;6987;19.472;-99.276;2023-05-18T10:25:18;9.48;;;8.68;;
13832;SDS011;6987;19.472;-99.276;2023-05-18T10:27:48;8.90;;;8.20;;
13832;SDS011;6987;19.472;-99.276;2023-05-18T10:30:17;9.80;;;8.80;;
13832;SDS011;6987;19.472;-99.276;2023-05-18T10:32:49;10.52;;;9.18;;
13832;SDS011;6987;19.472;-99.276;2023-05-18T10:35:19;9.95;;;8.07;;
13832;SDS011;6987;19.472;-99.276;2023-05-18T10:37:49;11.20;;;9.18;;
13832;SDS011;6987;19.472;-99.276;2023-05-18T10:40:19;9.10;;;8.38;;
13832;SDS011;6987;19.472;-99.276;2023-05-18T10:42:49;9.13;;;8.23;;
13832;SDS011;6987;19.472;-99.276;2023-05-18T10:45:19;12.18;;;9.23;;
13832;SDS011;6987;19.472;-99.276;2023-05-18T10:47:49;10.18;;;9.20;;
13832;SDS011;6987;19.472;-99.276;2023-05-18T10:50:20;11.43;;;8.88;;
13832;SDS011;6987;19.472;-99.276;2023-05-18T10:52:50;11.98;;;9.38;;
13832;SDS011;6987;19.472;-99.276;2023-05-18T10:55:21;10.82;;;9.82;;
13832;SDS011;6987;19.472;-99.276;2023-05-18T10:57:51;12.40;;;9.07;;
13832;SDS011;6987;19.472;-99.276;2023-05-18T11:00:20;10.45;;;9.07;;
13832;SDS011;6987;19.472;-99.276;2023-05-18T11:02:54;11.35;;;9.68;;
13832;SDS011;6987;19.472;-99.276;2023-05-18T11:05:23;9.88;;;8.95;;
13832;SDS011;6987;19.472;-99.276;2023-05-18T11:07:58;10.10;;;9.23;;
13832;SDS011;6987;19.472;-99.276;2023-05-18T11:10:33;12.43;;;9.73;;
13832;SDS011;6987;19.472;-99.276;2023-05-18T11:13:03;10.18;;;9.27;;
13832;SDS011;6987;19.472;-99.276;2023-05-18T11:18:20;11.18;;;9.98;;
13832;SDS011;6987;19.472;-99.276;2023-05-18T11:20:54;9.93;;;9.02;;
13832;SDS011;6987;19.472;-99.276;2023-05-18T11:23:23;10.32;;;9.38;;
13832;SDS011;6987;19.472;-99.276;2023-05-18T11:25:52;10.05;;;9.10;;
13832;SDS011;6987;19.472;-99.276;2023-05-18T11:28:21;9.25;;;8.45;;
13832;SDS011;6987;19.472;-99.276;2023-05-18T11:30:50;13.45;;;10.02;;
13832;SDS011;6987;19.472;-99.276;2023-05-18T11:33:24;12.55;;;9.93;;
13832;SDS011;6987;19.472;-99.276;2023-05-18T11:35:55;11.25;;;9.93;;
13832;SDS011;6987;19.472;-99.276;2023-05-18T11:38:45;12.57;;;9.98;;
13832;SDS011;6987;19.472;-99.276;2023-05-18T11:44:04;11.32;;;10.23;;
13832;SDS011;6987;19.472;-99.276;2023-05-18T11:46:34;12.93;;;9.98;;
13832;SDS011;6987;19.472;-99.276;2023-05-18T11:49:06;12.18;;;9.38;;
13832;SDS011;6987;19.472;-99.276;2023-05-18T11:51:45;11.15;;;10.05;;
13832;SDS011;6987;19.472;-99.276;2023-05-18T11:54:22;10.50;;;9.48;;
13832;SDS011;6987;19.472;-99.276;2023-05-18T11:56:51;12.15;;;10.68;;
13832;SDS011;6987;19.472;-99.276;2023-05-18T11:59:31;13.00;;;10.48;;
13832;SDS011;6987;19.472;-99.276;2023-05-18T12:02:00;11.25;;;10.07;;
13832;SDS011;6987;19.472;-99.276;2023-05-18T12:04:32;14.80;;;9.98;;
13832;SDS011;6987;19.472;-99.276;2023-05-18T12:07:03;10.52;;;9.50;;
13832;SDS011;6987;19.472;-99.276;2023-05-18T12:09:33;14.63;;;10.32;;
13832;SDS011;6987;19.472;-99.276;2023-05-18T12:12:02;11.00;;;9.90;;
13832;SDS011;6987;19.472;-99.276;2023-05-18T12:14:31;13.27;;;10.05;;
13832;SDS011;6987;19.472;-99.276;2023-05-18T12:17:02;11.10;;;9.88;;
13832;SDS011;6987;19.472;-99.276;2023-05-18T12:19:37;13.35;;;10.00;;
13832;SDS011;6987;19.472;-99.276;2023-05-18T12:22:07;12.52;;;9.60;;
13832;SDS011;6987;19.472;-99.276;2023-05-18T12:24:37;10.48;;;9.27;;
13832;SDS011;6987;19.472;-99.276;2023-05-18T12:27:07;11.32;;;9.80;;
13832;SDS011;6987;19.472;-99.276;2023-05-18T12:29:37;10.68;;;9.32;;
13832;SDS011;6987;19.472;-99.276;2023-05-18T12:32:07;10.82;;;9.73;;
13832;SDS011;6987;19.472;-99.276;2023-05-18T12:34:39;13.35;;;9.23;;
13832;SDS011;6987;19.472;-99.276;2023-05-18T12:37:07;11.75;;;8.85;;
13832;SDS011;6987;19.472;-99.276;2023-05-18T12:39:36;12.65;;;10.02;;
13832;SDS011;6987;19.472;-99.276;2023-05-18T12:42:09;10.70;;;9.43;;
13832;SDS011;6987;19.472;-99.276;2023-05-18T12:44:38;16.13;;;8.73;;
13832;SDS011;6987;19.472;-99.276;2023-05-18T12:47:09;11.88;;;9.02;;
13832;SDS011;6987;19.472;-99.276;2023-05-18T12:49:42;11.63;;;9.10;;
13832;SDS011;6987;19.472;-99.276;2023-05-18T12:52:15;10.05;;;9.05;;
13832;SDS011;6987;19.472;-99.276;2023-05-18T12:54:48;11.38;;;8.55;;
13832;SDS011;6987;19.472;-99.276;2023-05-18T12:57:20;13.82;;;8.65;;
13832;SDS011;6987;19.472;-99.276;2023-05-18T12:59:52;9.88;;;8.63;;
13832;SDS011;6987;19.472;-99.276;2023-05-18T13:02:25;10.80;;;8.07;;
13832;SDS011;6987;19.472;-99.276;2023-05-18T13:05:02;13.48;;;8.95;;
13832;SDS011;6987;19.472;-99.276;2023-05-18T13:07:33;10.88;;;8.13;;
13832;SDS011;6987;19.472;-99.276;2023-05-18T13:10:06;9.50;;;7.90;;
13832;SDS011;6987;19.472;-99.276;2023-05-18T13:12:39;12.70;;;9.07;;
13832;SDS011;6987;19.472;-99.276;2023-05-18T13:15:12;9.50;;;8.57;;
13832;SDS011;6987;19.472;-99.276;2023-05-18T13:17:53;10.00;;;9.05;;
13832;SDS011;6987;19.472;-99.276;2023-05-18T13:20:25;10.13;;;8.02;;
13832;SDS011;6987;19.472;-99.276;2023-05-18T13:22:57;8.73;;;8.10;;
13832;SDS011;6987;19.472;-99.276;2023-05-18T13:25:27;11.90;;;8.70;;
13832;SDS011;6987;19.472;-99.276;2023-05-18T13:27:56;10.25;;;9.20;;
13832;SDS011;6987;19.472;-99.276;2023-05-18T13:30:26;20.30;;;15.32;;
13832;SDS011;6987;19.472;-99.276;2023-05-18T13:32:55;31.75;;;20.50;;
13832;SDS011;6987;19.472;-99.276;2023-05-18T13:35:25;31.15;;;22.38;;
13832;SDS011;6987;19.472;-99.276;2023-05-18T13:37:54;29.45;;;20.30;;
13832;SDS011;6987;19.472;-99.276;2023-05-18T13:40:23;20.15;;;14.70;;
13832;SDS011;6987;19.472;-99.276;2023-05-18T13:42:52;12.90;;;11.63;;
13832;SDS011;6987;19.472;-99.276;2023-05-18T13:45:21;11.95;;;10.77;;
13832;SDS011;6987;19.472;-99.276;2023-05-18T13:47:51;14.43;;;11.73;;
13832;SDS011;6987;19.472;-99.276;2023-05-18T13:50:21;13.45;;;12.10;;
13832;SDS011;6987;19.472;-99.276;2023-05-18T13:52:52;18.63;;;13.43;;
13832;SDS011;6987;19.472;-99.276;2023-05-18T13:55:21;15.93;;;14.15;;
13832;SDS011;6987;19.472;-99.276;2023-05-18T13:58:05;14.80;;;13.52;;
13832;SDS011;6987;19.472;-99.276;2023-05-18T14:00:34;16.52;;;14.45;;
13832;SDS011;6987;19.472;-99.276;2023-05-18T14:03:04;16.38;;;14.02;;
13832;SDS011;6987;19.472;-99.276;2023-05-18T14:05:34;13.90;;;12.20;;
13832;SDS011;6987;19.472;-99.276;2023-05-18T14:08:05;18.13;;;14.55;;
13832;SDS011;6987;19.472;-99.276;2023-05-18T14:10:34;17.00;;;13.98;;
13832;SDS011;6987;19.472;-99.276;2023-05-18T14:13:03;17.05;;;14.68;;
13832;SDS011;6987;19.472;-99.276;2023-05-18T14:15:33;14.90;;;13.38;;
13832;SDS011;6987;19.472;-99.276;2023-05-18T14:18:03;15.77;;;14.32;;
13832;SDS011;6987;19.472;-99.276;2023-05-18T14:20:32;15.77;;;14.18;;
13832;SDS011;6987;19.472;-99.276;2023-05-18T14:23:02;17.65;;;14.70;;
13832;SDS011;6987;19.472;-99.276;2023-05-18T14:25:32;16.77;;;14.90;;
13832;SDS011;6987;19.472;-99.276;2023-05-18T14:28:01;16.77;;;15.18;;
13832;SDS011;6987;19.472;-99.276;2023-05-18T14:30:31;18.42;;;15.02;;
13832;SDS011;6987;19.472;-99.276;2023-05-18T14:33:00;20.65;;;15.48;;
13832;SDS011;6987;19.472;-99.276;2023-05-18T14:35:29;17.13;;;14.38;;
13832;SDS011;6987;19.472;-99.276;2023-05-18T14:37:58;17.08;;;15.38;;
13832;SDS011;6987;19.472;-99.276;2023-05-18T14:40:27;17.52;;;14.45;;
13832;SDS011;6987;19.472;-99.276;2023-05-18T14:42:58;17.92;;;16.13;;
13832;SDS011;6987;19.472;-99.276;2023-05-18T14:45:27;15.80;;;14.35;;
13832;SDS011;6987;19.472;-99.276;2023-05-18T14:47:56;15.68;;;14.05;;
13832;SDS011;6987;19.472;-99.276;2023-05-18T14:50:26;14.88;;;13.40;;
13832;SDS011;6987;19.472;-99.276;2023-05-18T14:52:55;17.02;;;15.10;;